Terminal Aerodrome Forecast
Issued by NWS

Current Version | Previous Version | Text Only | Print | Product List | Glossary Off
Versions: 1 2 3 4 5 6 7 8 9 10 11 12 13 14

000
FTUS41 KRNK 251739
TAFLWB
TAF
KLWB 251739Z 2518/2618 21005KT P6SM SCT050
     FM252300 24004KT P6SM VCSH BKN060
     FM260400 00000KT P6SM SCT060 BKN110
      TEMPO 2608/2612 4SM BR=

USA.gov is the U.S. government's official web portal to all federal, state and local government web resources and services.